sensor_id;sensor_type;location;lat;lon;timestamp;P1;durP1;ratioP1;P2;durP2;ratioP2
17207;SDS011;8720;48.488;9.202;2023-06-04T00:00:20;10.70;;;7.33;;
17207;SDS011;8720;48.488;9.202;2023-06-04T00:02:47;7.77;;;6.93;;
17207;SDS011;8720;48.488;9.202;2023-06-04T00:05:14;8.63;;;7.00;;
17207;SDS011;8720;48.488;9.202;2023-06-04T00:07:42;7.27;;;6.47;;
17207;SDS011;8720;48.488;9.202;2023-06-04T00:10:09;7.80;;;7.00;;
17207;SDS011;8720;48.488;9.202;2023-06-04T00:12:37;7.87;;;6.50;;
17207;SDS011;8720;48.488;9.202;2023-06-04T00:15:06;7.67;;;6.73;;
17207;SDS011;8720;48.488;9.202;2023-06-04T00:17:34;7.23;;;6.53;;
17207;SDS011;8720;48.488;9.202;2023-06-04T00:20:01;8.10;;;6.90;;
17207;SDS011;8720;48.488;9.202;2023-06-04T00:22:29;10.37;;;7.23;;
17207;SDS011;8720;48.488;9.202;2023-06-04T00:24:57;8.27;;;7.30;;
17207;SDS011;8720;48.488;9.202;2023-06-04T00:27:24;7.23;;;6.20;;
17207;SDS011;8720;48.488;9.202;2023-06-04T00:29:51;8.00;;;7.20;;
17207;SDS011;8720;48.488;9.202;2023-06-04T00:32:20;7.30;;;6.43;;
17207;SDS011;8720;48.488;9.202;2023-06-04T00:34:50;6.73;;;6.13;;
17207;SDS011;8720;48.488;9.202;2023-06-04T00:37:17;8.10;;;7.00;;
17207;SDS011;8720;48.488;9.202;2023-06-04T00:39:45;6.23;;;5.63;;
17207;SDS011;8720;48.488;9.202;2023-06-04T00:42:12;8.50;;;6.53;;
17207;SDS011;8720;48.488;9.202;2023-06-04T00:44:39;7.00;;;6.30;;
17207;SDS011;8720;48.488;9.202;2023-06-04T00:47:09;8.80;;;7.70;;
17207;SDS011;8720;48.488;9.202;2023-06-04T00:49:39;9.67;;;6.93;;
17207;SDS011;8720;48.488;9.202;2023-06-04T00:52:07;8.70;;;7.67;;
17207;SDS011;8720;48.488;9.202;2023-06-04T00:54:36;8.27;;;6.60;;
17207;SDS011;8720;48.488;9.202;2023-06-04T00:57:04;7.83;;;7.10;;
17207;SDS011;8720;48.488;9.202;2023-06-04T00:59:34;8.20;;;7.40;;
17207;SDS011;8720;48.488;9.202;2023-06-04T01:02:06;7.33;;;6.57;;
17207;SDS011;8720;48.488;9.202;2023-06-04T01:04:42;7.00;;;6.17;;
17207;SDS011;8720;48.488;9.202;2023-06-04T01:07:19;7.80;;;6.80;;
17207;SDS011;8720;48.488;9.202;2023-06-04T01:09:49;7.53;;;6.83;;
17207;SDS011;8720;48.488;9.202;2023-06-04T01:12:16;6.73;;;6.00;;
17207;SDS011;8720;48.488;9.202;2023-06-04T01:14:44;7.83;;;6.10;;
17207;SDS011;8720;48.488;9.202;2023-06-04T01:17:13;7.17;;;6.17;;
17207;SDS011;8720;48.488;9.202;2023-06-04T01:20:04;7.97;;;7.00;;
17207;SDS011;8720;48.488;9.202;2023-06-04T01:22:52;11.57;;;6.27;;
17207;SDS011;8720;48.488;9.202;2023-06-04T01:25:40;7.33;;;6.63;;
17207;SDS011;8720;48.488;9.202;2023-06-04T01:28:11;8.10;;;7.20;;
17207;SDS011;8720;48.488;9.202;2023-06-04T01:30:41;8.77;;;7.97;;
17207;SDS011;8720;48.488;9.202;2023-06-04T01:33:13;7.83;;;7.03;;
17207;SDS011;8720;48.488;9.202;2023-06-04T01:35:44;9.60;;;7.10;;
17207;SDS011;8720;48.488;9.202;2023-06-04T01:38:12;9.30;;;8.30;;
17207;SDS011;8720;48.488;9.202;2023-06-04T01:40:39;8.43;;;7.50;;
17207;SDS011;8720;48.488;9.202;2023-06-04T01:43:07;8.33;;;7.53;;
17207;SDS011;8720;48.488;9.202;2023-06-04T01:45:35;10.20;;;7.70;;
17207;SDS011;8720;48.488;9.202;2023-06-04T01:48:03;7.90;;;7.10;;
17207;SDS011;8720;48.488;9.202;2023-06-04T01:50:32;9.90;;;6.80;;
17207;SDS011;8720;48.488;9.202;2023-06-04T01:53:00;9.63;;;7.40;;
17207;SDS011;8720;48.488;9.202;2023-06-04T01:55:28;7.93;;;7.23;;
17207;SDS011;8720;48.488;9.202;2023-06-04T01:57:58;8.67;;;7.77;;
17207;SDS011;8720;48.488;9.202;2023-06-04T02:03:02;9.80;;;8.60;;
17207;SDS011;8720;48.488;9.202;2023-06-04T02:05:30;8.60;;;7.70;;
17207;SDS011;8720;48.488;9.202;2023-06-04T02:07:57;7.57;;;6.87;;
17207;SDS011;8720;48.488;9.202;2023-06-04T02:10:28;8.60;;;7.00;;
17207;SDS011;8720;48.488;9.202;2023-06-04T02:12:56;8.40;;;7.57;;
17207;SDS011;8720;48.488;9.202;2023-06-04T02:15:26;7.73;;;7.03;;
17207;SDS011;8720;48.488;9.202;2023-06-04T02:17:54;15.33;;;8.40;;
17207;SDS011;8720;48.488;9.202;2023-06-04T02:20:27;8.43;;;7.50;;
17207;SDS011;8720;48.488;9.202;2023-06-04T02:22:55;8.20;;;7.40;;
17207;SDS011;8720;48.488;9.202;2023-06-04T02:25:25;7.70;;;6.90;;
17207;SDS011;8720;48.488;9.202;2023-06-04T02:27:53;8.27;;;7.47;;
17207;SDS011;8720;48.488;9.202;2023-06-04T02:30:21;7.93;;;7.10;;
17207;SDS011;8720;48.488;9.202;2023-06-04T02:32:48;7.60;;;6.80;;
17207;SDS011;8720;48.488;9.202;2023-06-04T02:35:16;8.83;;;7.40;;
17207;SDS011;8720;48.488;9.202;2023-06-04T02:37:43;9.43;;;7.57;;
17207;SDS011;8720;48.488;9.202;2023-06-04T02:40:11;9.77;;;7.60;;
17207;SDS011;8720;48.488;9.202;2023-06-04T02:42:38;9.50;;;8.43;;
17207;SDS011;8720;48.488;9.202;2023-06-04T02:45:07;10.10;;;8.00;;
17207;SDS011;8720;48.488;9.202;2023-06-04T02:47:36;8.63;;;7.40;;
17207;SDS011;8720;48.488;9.202;2023-06-04T02:50:04;11.47;;;7.80;;
17207;SDS011;8720;48.488;9.202;2023-06-04T02:52:33;10.50;;;7.40;;
17207;SDS011;8720;48.488;9.202;2023-06-04T02:55:02;8.97;;;8.03;;
17207;SDS011;8720;48.488;9.202;2023-06-04T02:57:31;8.47;;;7.57;;
17207;SDS011;8720;48.488;9.202;2023-06-04T02:59:59;7.30;;;6.47;;
17207;SDS011;8720;48.488;9.202;2023-06-04T03:02:29;8.33;;;7.37;;
17207;SDS011;8720;48.488;9.202;2023-06-04T03:04:56;7.67;;;6.87;;
17207;SDS011;8720;48.488;9.202;2023-06-04T03:07:23;7.67;;;6.90;;
17207;SDS011;8720;48.488;9.202;2023-06-04T03:09:50;9.20;;;7.60;;
17207;SDS011;8720;48.488;9.202;2023-06-04T03:12:17;8.23;;;7.43;;
17207;SDS011;8720;48.488;9.202;2023-06-04T03:14:45;9.90;;;8.90;;
17207;SDS011;8720;48.488;9.202;2023-06-04T03:17:12;9.97;;;7.93;;
17207;SDS011;8720;48.488;9.202;2023-06-04T03:19:41;7.80;;;6.87;;
17207;SDS011;8720;48.488;9.202;2023-06-04T03:22:09;11.10;;;8.30;;
17207;SDS011;8720;48.488;9.202;2023-06-04T03:24:37;8.70;;;7.90;;
17207;SDS011;8720;48.488;9.202;2023-06-04T03:27:06;9.13;;;8.20;;
17207;SDS011;8720;48.488;9.202;2023-06-04T03:29:37;8.27;;;7.47;;
17207;SDS011;8720;48.488;9.202;2023-06-04T03:32:06;8.53;;;7.73;;
17207;SDS011;8720;48.488;9.202;2023-06-04T03:34:35;8.00;;;7.20;;
17207;SDS011;8720;48.488;9.202;2023-06-04T03:37:04;8.33;;;6.80;;
17207;SDS011;8720;48.488;9.202;2023-06-04T03:39:32;8.40;;;6.90;;
17207;SDS011;8720;48.488;9.202;2023-06-04T03:42:02;7.27;;;6.27;;
17207;SDS011;8720;48.488;9.202;2023-06-04T03:44:31;7.50;;;6.40;;
17207;SDS011;8720;48.488;9.202;2023-06-04T03:46:58;6.67;;;6.07;;
17207;SDS011;8720;48.488;9.202;2023-06-04T03:49:26;10.43;;;6.63;;
17207;SDS011;8720;48.488;9.202;2023-06-04T03:51:54;7.20;;;6.20;;
17207;SDS011;8720;48.488;9.202;2023-06-04T03:54:23;7.47;;;6.60;;
17207;SDS011;8720;48.488;9.202;2023-06-04T03:56:51;7.97;;;7.27;;
17207;SDS011;8720;48.488;9.202;2023-06-04T03:59:18;9.00;;;7.57;;
17207;SDS011;8720;48.488;9.202;2023-06-04T04:01:46;7.80;;;7.00;;
17207;SDS011;8720;48.488;9.202;2023-06-04T04:04:14;7.73;;;6.93;;
17207;SDS011;8720;48.488;9.202;2023-06-04T04:06:41;7.40;;;6.33;;
17207;SDS011;8720;48.488;9.202;2023-06-04T04:09:10;7.80;;;7.00;;
17207;SDS011;8720;48.488;9.202;2023-06-04T04:11:39;6.90;;;6.20;;
17207;SDS011;8720;48.488;9.202;2023-06-04T04:14:06;7.30;;;5.70;;
17207;SDS011;8720;48.488;9.202;2023-06-04T04:16:34;7.50;;;6.80;;
17207;SDS011;8720;48.488;9.202;2023-06-04T04:19:02;6.90;;;6.20;;
17207;SDS011;8720;48.488;9.202;2023-06-04T04:21:33;7.70;;;6.80;;
17207;SDS011;8720;48.488;9.202;2023-06-04T04:24:02;8.57;;;6.60;;
17207;SDS011;8720;48.488;9.202;2023-06-04T04:26:29;7.93;;;6.53;;
17207;SDS011;8720;48.488;9.202;2023-06-04T04:28:59;5.60;;;5.10;;
17207;SDS011;8720;48.488;9.202;2023-06-04T04:31:30;7.57;;;6.80;;
17207;SDS011;8720;48.488;9.202;2023-06-04T04:33:57;7.23;;;5.70;;
17207;SDS011;8720;48.488;9.202;2023-06-04T04:36:26;6.93;;;5.70;;
17207;SDS011;8720;48.488;9.202;2023-06-04T04:38:54;8.53;;;6.17;;
17207;SDS011;8720;48.488;9.202;2023-06-04T04:41:30;9.13;;;5.97;;
17207;SDS011;8720;48.488;9.202;2023-06-04T04:44:03;6.70;;;5.50;;
17207;SDS011;8720;48.488;9.202;2023-06-04T04:46:31;6.23;;;5.57;;
17207;SDS011;8720;48.488;9.202;2023-06-04T04:48:59;7.63;;;6.70;;
17207;SDS011;8720;48.488;9.202;2023-06-04T04:51:27;7.10;;;6.13;;
17207;SDS011;8720;48.488;9.202;2023-06-04T04:53:55;7.30;;;6.50;;
17207;SDS011;8720;48.488;9.202;2023-06-04T04:56:24;7.77;;;6.30;;
17207;SDS011;8720;48.488;9.202;2023-06-04T04:58:51;6.57;;;5.97;;
17207;SDS011;8720;48.488;9.202;2023-06-04T05:01:20;7.70;;;6.93;;
17207;SDS011;8720;48.488;9.202;2023-06-04T05:03:49;7.87;;;7.07;;
17207;SDS011;8720;48.488;9.202;2023-06-04T05:06:17;7.80;;;6.80;;
17207;SDS011;8720;48.488;9.202;2023-06-04T05:08:45;7.87;;;7.07;;
17207;SDS011;8720;48.488;9.202;2023-06-04T05:11:14;8.57;;;7.10;;
17207;SDS011;8720;48.488;9.202;2023-06-04T05:13:43;7.27;;;6.57;;
17207;SDS011;8720;48.488;9.202;2023-06-04T05:16:12;8.00;;;6.53;;
17207;SDS011;8720;48.488;9.202;2023-06-04T05:18:42;5.60;;;5.10;;
17207;SDS011;8720;48.488;9.202;2023-06-04T05:21:14;9.50;;;4.50;;
17207;SDS011;8720;48.488;9.202;2023-06-04T05:23:50;5.03;;;4.47;;
17207;SDS011;8720;48.488;9.202;2023-06-04T05:26:21;4.23;;;3.80;;
17207;SDS011;8720;48.488;9.202;2023-06-04T05:28:49;4.43;;;4.00;;
17207;SDS011;8720;48.488;9.202;2023-06-04T05:31:16;7.30;;;4.20;;
17207;SDS011;8720;48.488;9.202;2023-06-04T05:33:45;5.97;;;5.33;;
17207;SDS011;8720;48.488;9.202;2023-06-04T05:36:17;7.97;;;7.27;;
17207;SDS011;8720;48.488;9.202;2023-06-04T05:38:51;7.57;;;6.87;;
17207;SDS011;8720;48.488;9.202;2023-06-04T05:41:24;8.43;;;7.70;;
17207;SDS011;8720;48.488;9.202;2023-06-04T05:43:53;7.80;;;7.10;;
17207;SDS011;8720;48.488;9.202;2023-06-04T05:46:21;8.57;;;7.67;;
17207;SDS011;8720;48.488;9.202;2023-06-04T05:48:49;9.80;;;8.60;;
17207;SDS011;8720;48.488;9.202;2023-06-04T05:51:17;7.50;;;6.80;;
17207;SDS011;8720;48.488;9.202;2023-06-04T05:53:45;8.43;;;7.73;;
17207;SDS011;8720;48.488;9.202;2023-06-04T05:56:13;7.60;;;6.90;;
17207;SDS011;8720;48.488;9.202;2023-06-04T05:58:42;7.93;;;7.10;;
17207;SDS011;8720;48.488;9.202;2023-06-04T06:01:10;8.47;;;7.67;;
17207;SDS011;8720;48.488;9.202;2023-06-04T06:03:37;11.20;;;7.87;;
17207;SDS011;8720;48.488;9.202;2023-06-04T06:06:06;8.87;;;7.27;;
17207;SDS011;8720;48.488;9.202;2023-06-04T06:08:36;7.33;;;6.63;;
17207;SDS011;8720;48.488;9.202;2023-06-04T06:11:04;7.07;;;6.37;;
17207;SDS011;8720;48.488;9.202;2023-06-04T06:13:32;6.73;;;6.17;;
17207;SDS011;8720;48.488;9.202;2023-06-04T06:16:00;6.73;;;6.10;;
17207;SDS011;8720;48.488;9.202;2023-06-04T06:18:27;6.00;;;5.50;;
17207;SDS011;8720;48.488;9.202;2023-06-04T06:20:54;6.13;;;5.63;;
17207;SDS011;8720;48.488;9.202;2023-06-04T06:23:24;6.17;;;5.57;;
17207;SDS011;8720;48.488;9.202;2023-06-04T06:25:51;5.93;;;5.33;;
17207;SDS011;8720;48.488;9.202;2023-06-04T06:28:22;5.60;;;5.10;;
17207;SDS011;8720;48.488;9.202;2023-06-04T06:30:51;6.00;;;5.00;;
17207;SDS011;8720;48.488;9.202;2023-06-04T06:33:18;5.13;;;4.73;;
17207;SDS011;8720;48.488;9.202;2023-06-04T06:35:48;4.70;;;4.30;;
17207;SDS011;8720;48.488;9.202;2023-06-04T06:38:16;5.90;;;5.30;;
17207;SDS011;8720;48.488;9.202;2023-06-04T06:40:44;5.00;;;4.60;;
17207;SDS011;8720;48.488;9.202;2023-06-04T06:43:12;6.07;;;5.47;;
17207;SDS011;8720;48.488;9.202;2023-06-04T06:45:39;6.50;;;4.47;;
17207;SDS011;8720;48.488;9.202;2023-06-04T06:48:06;5.60;;;4.60;;
17207;SDS011;8720;48.488;9.202;2023-06-04T06:50:33;5.40;;;4.90;;
17207;SDS011;8720;48.488;9.202;2023-06-04T06:53:01;5.67;;;5.10;;
17207;SDS011;8720;48.488;9.202;2023-06-04T06:55:29;5.60;;;5.10;;
17207;SDS011;8720;48.488;9.202;2023-06-04T06:57:57;5.47;;;4.97;;
17207;SDS011;8720;48.488;9.202;2023-06-04T07:00:28;5.50;;;4.70;;
17207;SDS011;8720;48.488;9.202;2023-06-04T07:02:55;5.47;;;4.97;;
17207;SDS011;8720;48.488;9.202;2023-06-04T07:05:22;5.27;;;4.87;;
17207;SDS011;8720;48.488;9.202;2023-06-04T07:07:50;4.73;;;4.33;;
17207;SDS011;8720;48.488;9.202;2023-06-04T07:10:17;4.63;;;4.23;;
17207;SDS011;8720;48.488;9.202;2023-06-04T07:12:45;4.77;;;4.37;;
17207;SDS011;8720;48.488;9.202;2023-06-04T07:15:13;9.70;;;4.97;;
17207;SDS011;8720;48.488;9.202;2023-06-04T07:17:41;4.33;;;3.93;;
17207;SDS011;8720;48.488;9.202;2023-06-04T07:20:08;5.13;;;4.17;;
17207;SDS011;8720;48.488;9.202;2023-06-04T07:22:36;4.53;;;4.13;;
17207;SDS011;8720;48.488;9.202;2023-06-04T07:25:05;7.10;;;4.33;;
17207;SDS011;8720;48.488;9.202;2023-06-04T07:27:33;4.70;;;4.30;;
17207;SDS011;8720;48.488;9.202;2023-06-04T07:30:01;5.70;;;4.23;;
17207;SDS011;8720;48.488;9.202;2023-06-04T07:32:29;4.70;;;4.30;;
17207;SDS011;8720;48.488;9.202;2023-06-04T07:34:57;5.00;;;3.83;;
17207;SDS011;8720;48.488;9.202;2023-06-04T07:37:24;4.20;;;3.80;;
17207;SDS011;8720;48.488;9.202;2023-06-04T07:39:51;3.90;;;3.50;;
17207;SDS011;8720;48.488;9.202;2023-06-04T07:42:19;3.97;;;3.57;;
17207;SDS011;8720;48.488;9.202;2023-06-04T07:44:46;4.47;;;3.80;;
17207;SDS011;8720;48.488;9.202;2023-06-04T07:47:13;4.67;;;3.60;;
17207;SDS011;8720;48.488;9.202;2023-06-04T07:49:42;6.63;;;3.63;;
17207;SDS011;8720;48.488;9.202;2023-06-04T07:52:09;5.40;;;3.70;;
17207;SDS011;8720;48.488;9.202;2023-06-04T07:54:37;4.47;;;3.40;;
17207;SDS011;8720;48.488;9.202;2023-06-04T07:57:06;4.77;;;3.90;;
17207;SDS011;8720;48.488;9.202;2023-06-04T07:59:34;4.33;;;3.70;;
17207;SDS011;8720;48.488;9.202;2023-06-04T08:02:01;4.30;;;3.23;;
17207;SDS011;8720;48.488;9.202;2023-06-04T08:04:28;4.17;;;3.80;;
17207;SDS011;8720;48.488;9.202;2023-06-04T08:06:57;6.63;;;3.80;;
17207;SDS011;8720;48.488;9.202;2023-06-04T08:09:25;3.87;;;3.40;;
17207;SDS011;8720;48.488;9.202;2023-06-04T08:11:52;3.83;;;2.93;;
17207;SDS011;8720;48.488;9.202;2023-06-04T08:14:19;4.13;;;3.20;;
17207;SDS011;8720;48.488;9.202;2023-06-04T08:16:47;2.83;;;2.60;;
17207;SDS011;8720;48.488;9.202;2023-06-04T08:19:14;3.23;;;2.90;;
17207;SDS011;8720;48.488;9.202;2023-06-04T08:21:42;3.10;;;2.70;;
17207;SDS011;8720;48.488;9.202;2023-06-04T08:24:11;4.23;;;3.30;;
17207;SDS011;8720;48.488;9.202;2023-06-04T08:26:38;3.20;;;2.90;;
17207;SDS011;8720;48.488;9.202;2023-06-04T08:29:06;3.70;;;2.93;;
17207;SDS011;8720;48.488;9.202;2023-06-04T08:31:33;4.00;;;3.47;;
17207;SDS011;8720;48.488;9.202;2023-06-04T08:34:01;3.33;;;3.03;;
17207;SDS011;8720;48.488;9.202;2023-06-04T08:36:30;3.73;;;2.90;;
17207;SDS011;8720;48.488;9.202;2023-06-04T08:38:58;4.30;;;2.80;;
17207;SDS011;8720;48.488;9.202;2023-06-04T08:41:29;4.17;;;3.37;;
17207;SDS011;8720;48.488;9.202;2023-06-04T08:44:04;5.27;;;3.07;;
17207;SDS011;8720;48.488;9.202;2023-06-04T08:46:32;3.60;;;3.30;;
17207;SDS011;8720;48.488;9.202;2023-06-04T08:49:05;3.30;;;2.90;;
17207;SDS011;8720;48.488;9.202;2023-06-04T08:51:35;4.50;;;2.90;;
17207;SDS011;8720;48.488;9.202;2023-06-04T08:54:03;3.80;;;2.77;;
17207;SDS011;8720;48.488;9.202;2023-06-04T08:56:34;3.83;;;2.83;;
17207;SDS011;8720;48.488;9.202;2023-06-04T08:59:03;2.63;;;2.37;;
17207;SDS011;8720;48.488;9.202;2023-06-04T09:01:34;3.40;;;3.10;;
17207;SDS011;8720;48.488;9.202;2023-06-04T09:04:04;2.70;;;2.50;;
17207;SDS011;8720;48.488;9.202;2023-06-04T09:06:33;3.63;;;2.47;;
17207;SDS011;8720;48.488;9.202;2023-06-04T09:09:02;3.47;;;3.17;;
17207;SDS011;8720;48.488;9.202;2023-06-04T09:11:37;3.27;;;2.73;;
17207;SDS011;8720;48.488;9.202;2023-06-04T09:14:11;4.10;;;3.03;;
17207;SDS011;8720;48.488;9.202;2023-06-04T09:16:44;5.10;;;2.90;;
17207;SDS011;8720;48.488;9.202;2023-06-04T09:19:13;3.13;;;2.90;;
17207;SDS011;8720;48.488;9.202;2023-06-04T09:21:48;2.90;;;2.60;;
17207;SDS011;8720;48.488;9.202;2023-06-04T09:24:16;4.87;;;2.70;;
17207;SDS011;8720;48.488;9.202;2023-06-04T09:26:45;4.40;;;2.50;;
17207;SDS011;8720;48.488;9.202;2023-06-04T09:29:14;4.33;;;2.97;;
17207;SDS011;8720;48.488;9.202;2023-06-04T09:31:41;6.53;;;3.00;;
17207;SDS011;8720;48.488;9.202;2023-06-04T09:34:12;4.30;;;2.87;;
17207;SDS011;8720;48.488;9.202;2023-06-04T09:36:40;3.20;;;2.90;;
17207;SDS011;8720;48.488;9.202;2023-06-04T09:39:17;3.97;;;3.43;;
17207;SDS011;8720;48.488;9.202;2023-06-04T09:41:45;3.37;;;2.80;;
17207;SDS011;8720;48.488;9.202;2023-06-04T09:44:25;4.73;;;2.83;;
17207;SDS011;8720;48.488;9.202;2023-06-04T09:46:54;3.40;;;3.03;;
17207;SDS011;8720;48.488;9.202;2023-06-04T09:49:22;3.53;;;3.03;;
17207;SDS011;8720;48.488;9.202;2023-06-04T09:51:50;3.23;;;2.93;;
17207;SDS011;8720;48.488;9.202;2023-06-04T09:54:17;3.27;;;2.80;;
17207;SDS011;8720;48.488;9.202;2023-06-04T09:56:46;4.10;;;3.47;;
17207;SDS011;8720;48.488;9.202;2023-06-04T09:59:13;3.13;;;2.83;;
17207;SDS011;8720;48.488;9.202;2023-06-04T10:01:41;3.53;;;3.00;;
17207;SDS011;8720;48.488;9.202;2023-06-04T10:04:09;3.83;;;2.80;;
17207;SDS011;8720;48.488;9.202;2023-06-04T10:06:39;3.53;;;3.17;;
17207;SDS011;8720;48.488;9.202;2023-06-04T10:09:09;4.30;;;3.30;;
17207;SDS011;8720;48.488;9.202;2023-06-04T10:11:40;4.67;;;2.93;;
17207;SDS011;8720;48.488;9.202;2023-06-04T10:14:16;4.30;;;3.17;;
17207;SDS011;8720;48.488;9.202;2023-06-04T10:16:49;3.10;;;2.80;;
17207;SDS011;8720;48.488;9.202;2023-06-04T10:19:18;4.97;;;3.47;;
17207;SDS011;8720;48.488;9.202;2023-06-04T10:21:46;4.77;;;3.17;;
17207;SDS011;8720;48.488;9.202;2023-06-04T10:24:14;5.40;;;3.93;;
17207;SDS011;8720;48.488;9.202;2023-06-04T10:26:42;4.20;;;3.80;;
17207;SDS011;8720;48.488;9.202;2023-06-04T10:29:10;3.50;;;3.17;;
17207;SDS011;8720;48.488;9.202;2023-06-04T10:31:42;3.47;;;3.17;;
17207;SDS011;8720;48.488;9.202;2023-06-04T10:34:10;3.43;;;3.10;;
17207;SDS011;8720;48.488;9.202;2023-06-04T10:36:42;8.50;;;4.27;;
17207;SDS011;8720;48.488;9.202;2023-06-04T10:39:10;3.47;;;3.10;;
17207;SDS011;8720;48.488;9.202;2023-06-04T10:41:38;3.53;;;3.20;;
17207;SDS011;8720;48.488;9.202;2023-06-04T10:44:06;6.00;;;3.73;;
17207;SDS011;8720;48.488;9.202;2023-06-04T10:46:37;5.60;;;3.80;;
17207;SDS011;8720;48.488;9.202;2023-06-04T10:49:07;3.60;;;3.20;;
17207;SDS011;8720;48.488;9.202;2023-06-04T10:51:36;4.73;;;3.73;;
17207;SDS011;8720;48.488;9.202;2023-06-04T10:54:04;4.00;;;3.37;;
17207;SDS011;8720;48.488;9.202;2023-06-04T10:56:33;5.53;;;3.70;;
17207;SDS011;8720;48.488;9.202;2023-06-04T10:59:12;3.70;;;3.40;;
17207;SDS011;8720;48.488;9.202;2023-06-04T11:01:41;5.30;;;3.97;;
17207;SDS011;8720;48.488;9.202;2023-06-04T11:04:19;4.60;;;4.03;;
17207;SDS011;8720;48.488;9.202;2023-06-04T11:06:47;5.60;;;3.73;;
17207;SDS011;8720;48.488;9.202;2023-06-04T11:09:26;4.90;;;3.60;;
17207;SDS011;8720;48.488;9.202;2023-06-04T11:11:57;4.47;;;4.07;;
17207;SDS011;8720;48.488;9.202;2023-06-04T11:14:25;4.20;;;3.80;;
17207;SDS011;8720;48.488;9.202;2023-06-04T11:16:52;3.80;;;3.23;;
17207;SDS011;8720;48.488;9.202;2023-06-04T11:19:21;4.23;;;3.50;;
17207;SDS011;8720;48.488;9.202;2023-06-04T11:21:48;4.70;;;4.17;;
17207;SDS011;8720;48.488;9.202;2023-06-04T11:24:16;4.17;;;3.77;;
17207;SDS011;8720;48.488;9.202;2023-06-04T11:26:43;4.50;;;4.10;;
17207;SDS011;8720;48.488;9.202;2023-06-04T11:29:13;4.70;;;3.70;;
17207;SDS011;8720;48.488;9.202;2023-06-04T11:31:41;4.73;;;4.33;;
17207;SDS011;8720;48.488;9.202;2023-06-04T11:34:09;4.60;;;3.73;;
17207;SDS011;8720;48.488;9.202;2023-06-04T11:36:49;4.20;;;3.80;;
17207;SDS011;8720;48.488;9.202;2023-06-04T11:39:18;6.60;;;4.13;;
17207;SDS011;8720;48.488;9.202;2023-06-04T11:41:46;5.03;;;4.40;;
17207;SDS011;8720;48.488;9.202;2023-06-04T11:44:18;4.50;;;4.10;;
17207;SDS011;8720;48.488;9.202;2023-06-04T11:46:46;6.13;;;4.20;;
17207;SDS011;8720;48.488;9.202;2023-06-04T11:49:17;5.77;;;4.40;;
17207;SDS011;8720;48.488;9.202;2023-06-04T11:51:46;4.23;;;3.83;;
17207;SDS011;8720;48.488;9.202;2023-06-04T11:54:16;5.00;;;3.90;;
17207;SDS011;8720;48.488;9.202;2023-06-04T11:56:45;4.77;;;4.13;;
17207;SDS011;8720;48.488;9.202;2023-06-04T11:59:17;4.70;;;4.17;;
17207;SDS011;8720;48.488;9.202;2023-06-04T12:01:46;4.30;;;3.90;;
17207;SDS011;8720;48.488;9.202;2023-06-04T12:04:15;5.50;;;4.40;;
17207;SDS011;8720;48.488;9.202;2023-06-04T12:06:52;4.27;;;3.90;;
17207;SDS011;8720;48.488;9.202;2023-06-04T12:09:21;4.43;;;4.00;;
17207;SDS011;8720;48.488;9.202;2023-06-04T12:11:57;6.03;;;4.57;;
17207;SDS011;8720;48.488;9.202;2023-06-04T12:14:25;3.63;;;3.30;;
17207;SDS011;8720;48.488;9.202;2023-06-04T12:16:56;5.10;;;4.60;;
17207;SDS011;8720;48.488;9.202;2023-06-04T12:19:24;4.00;;;3.60;;
17207;SDS011;8720;48.488;9.202;2023-06-04T12:22:00;4.17;;;3.77;;
17207;SDS011;8720;48.488;9.202;2023-06-04T12:24:30;4.40;;;4.00;;
17207;SDS011;8720;48.488;9.202;2023-06-04T12:27:01;4.83;;;4.33;;
17207;SDS011;8720;48.488;9.202;2023-06-04T12:29:32;4.53;;;4.13;;
17207;SDS011;8720;48.488;9.202;2023-06-04T12:32:03;5.40;;;4.60;;
17207;SDS011;8720;48.488;9.202;2023-06-04T12:34:33;4.90;;;4.33;;
17207;SDS011;8720;48.488;9.202;2023-06-04T12:37:02;4.37;;;4.00;;
17207;SDS011;8720;48.488;9.202;2023-06-04T12:39:31;5.20;;;4.33;;
17207;SDS011;8720;48.488;9.202;2023-06-04T12:41:58;4.30;;;3.90;;
17207;SDS011;8720;48.488;9.202;2023-06-04T12:44:25;4.97;;;4.47;;
17207;SDS011;8720;48.488;9.202;2023-06-04T12:46:53;6.20;;;4.33;;
17207;SDS011;8720;48.488;9.202;2023-06-04T12:49:21;4.43;;;4.03;;
17207;SDS011;8720;48.488;9.202;2023-06-04T12:51:48;6.10;;;4.20;;
17207;SDS011;8720;48.488;9.202;2023-06-04T12:54:17;4.90;;;4.47;;
17207;SDS011;8720;48.488;9.202;2023-06-04T12:56:45;6.40;;;5.30;;
17207;SDS011;8720;48.488;9.202;2023-06-04T12:59:12;5.77;;;4.57;;
17207;SDS011;8720;48.488;9.202;2023-06-04T13:01:40;5.40;;;4.90;;
17207;SDS011;8720;48.488;9.202;2023-06-04T13:04:07;5.30;;;4.87;;
17207;SDS011;8720;48.488;9.202;2023-06-04T13:06:35;5.93;;;4.80;;
17207;SDS011;8720;48.488;9.202;2023-06-04T13:09:03;5.00;;;4.50;;
17207;SDS011;8720;48.488;9.202;2023-06-04T13:11:36;4.77;;;4.27;;
17207;SDS011;8720;48.488;9.202;2023-06-04T13:14:05;5.83;;;4.60;;
17207;SDS011;8720;48.488;9.202;2023-06-04T13:16:33;7.23;;;4.73;;
17207;SDS011;8720;48.488;9.202;2023-06-04T13:19:01;6.03;;;4.77;;
17207;SDS011;8720;48.488;9.202;2023-06-04T13:21:29;5.17;;;4.67;;
17207;SDS011;8720;48.488;9.202;2023-06-04T13:23:56;5.07;;;4.60;;
17207;SDS011;8720;48.488;9.202;2023-06-04T13:26:23;4.80;;;4.40;;
17207;SDS011;8720;48.488;9.202;2023-06-04T13:28:53;5.47;;;4.97;;
17207;SDS011;8720;48.488;9.202;2023-06-04T13:31:20;4.73;;;4.33;;
17207;SDS011;8720;48.488;9.202;2023-06-04T13:33:47;4.83;;;4.30;;
17207;SDS011;8720;48.488;9.202;2023-06-04T13:36:14;5.17;;;4.67;;
17207;SDS011;8720;48.488;9.202;2023-06-04T13:38:42;4.73;;;4.30;;
17207;SDS011;8720;48.488;9.202;2023-06-04T13:41:09;5.37;;;4.87;;
17207;SDS011;8720;48.488;9.202;2023-06-04T13:43:36;5.27;;;4.77;;
17207;SDS011;8720;48.488;9.202;2023-06-04T13:46:05;5.30;;;4.80;;
17207;SDS011;8720;48.488;9.202;2023-06-04T13:48:32;5.43;;;4.93;;
17207;SDS011;8720;48.488;9.202;2023-06-04T13:51:00;5.47;;;4.60;;
17207;SDS011;8720;48.488;9.202;2023-06-04T13:53:27;5.07;;;4.67;;
17207;SDS011;8720;48.488;9.202;2023-06-04T13:55:54;5.20;;;4.70;;
17207;SDS011;8720;48.488;9.202;2023-06-04T13:58:23;4.83;;;4.27;;
17207;SDS011;8720;48.488;9.202;2023-06-04T14:00:51;4.80;;;4.40;;
17207;SDS011;8720;48.488;9.202;2023-06-04T14:03:20;5.53;;;4.93;;
17207;SDS011;8720;48.488;9.202;2023-06-04T14:05:48;7.03;;;4.90;;
17207;SDS011;8720;48.488;9.202;2023-06-04T14:08:15;5.90;;;4.23;;
17207;SDS011;8720;48.488;9.202;2023-06-04T14:10:42;5.10;;;4.63;;
17207;SDS011;8720;48.488;9.202;2023-06-04T14:13:09;5.30;;;4.87;;
17207;SDS011;8720;48.488;9.202;2023-06-04T14:15:37;6.10;;;5.10;;
17207;SDS011;8720;48.488;9.202;2023-06-04T14:18:04;5.50;;;4.60;;
17207;SDS011;8720;48.488;9.202;2023-06-04T14:20:33;4.80;;;3.73;;
17207;SDS011;8720;48.488;9.202;2023-06-04T14:23:00;5.03;;;4.50;;
17207;SDS011;8720;48.488;9.202;2023-06-04T14:25:28;5.30;;;4.80;;
17207;SDS011;8720;48.488;9.202;2023-06-04T14:27:55;5.40;;;4.63;;
17207;SDS011;8720;48.488;9.202;2023-06-04T14:30:22;5.23;;;4.73;;
17207;SDS011;8720;48.488;9.202;2023-06-04T14:32:49;5.27;;;4.77;;
17207;SDS011;8720;48.488;9.202;2023-06-04T14:35:17;4.30;;;3.90;;
17207;SDS011;8720;48.488;9.202;2023-06-04T14:37:45;4.70;;;4.27;;
17207;SDS011;8720;48.488;9.202;2023-06-04T14:40:13;4.47;;;4.03;;
17207;SDS011;8720;48.488;9.202;2023-06-04T14:42:41;5.40;;;4.90;;
17207;SDS011;8720;48.488;9.202;2023-06-04T14:45:08;5.10;;;4.50;;
17207;SDS011;8720;48.488;9.202;2023-06-04T14:47:36;5.60;;;5.03;;
17207;SDS011;8720;48.488;9.202;2023-06-04T14:50:03;5.20;;;4.47;;
17207;SDS011;8720;48.488;9.202;2023-06-04T14:52:32;5.70;;;4.37;;
17207;SDS011;8720;48.488;9.202;2023-06-04T14:55:00;5.13;;;4.63;;
17207;SDS011;8720;48.488;9.202;2023-06-04T14:57:28;4.83;;;4.33;;
17207;SDS011;8720;48.488;9.202;2023-06-04T14:59:55;4.30;;;3.90;;
17207;SDS011;8720;48.488;9.202;2023-06-04T15:02:22;4.77;;;3.87;;
17207;SDS011;8720;48.488;9.202;2023-06-04T15:04:49;6.60;;;4.80;;
17207;SDS011;8720;48.488;9.202;2023-06-04T15:07:17;5.50;;;4.10;;
17207;SDS011;8720;48.488;9.202;2023-06-04T15:09:44;4.87;;;4.37;;
17207;SDS011;8720;48.488;9.202;2023-06-04T15:12:14;4.20;;;3.80;;